sensor_id;sensor_type;location;lat;lon;timestamp;P1;durP1;ratioP1;P2;durP2;ratioP2
17345;SDS011;8790;53.590;10.002;2024-03-02T00:02:24;20.73;;;12.90;;
17345;SDS011;8790;53.590;10.002;2024-03-02T00:04:55;19.17;;;12.03;;
17345;SDS011;8790;53.590;10.002;2024-03-02T00:07:26;21.33;;;12.20;;
17345;SDS011;8790;53.590;10.002;2024-03-02T00:09:58;19.80;;;12.20;;
17345;SDS011;8790;53.590;10.002;2024-03-02T00:12:29;18.33;;;12.40;;
17345;SDS011;8790;53.590;10.002;2024-03-02T00:15:01;19.30;;;12.00;;
17345;SDS011;8790;53.590;10.002;2024-03-02T00:17:34;18.13;;;11.57;;
17345;SDS011;8790;53.590;10.002;2024-03-02T00:20:06;18.77;;;12.40;;
17345;SDS011;8790;53.590;10.002;2024-03-02T00:22:40;17.93;;;11.87;;
17345;SDS011;8790;53.590;10.002;2024-03-02T00:25:12;18.23;;;12.13;;
17345;SDS011;8790;53.590;10.002;2024-03-02T00:27:46;18.30;;;11.93;;
17345;SDS011;8790;53.590;10.002;2024-03-02T00:30:29;20.30;;;12.30;;
17345;SDS011;8790;53.590;10.002;2024-03-02T00:33:14;18.23;;;12.30;;
17345;SDS011;8790;53.590;10.002;2024-03-02T00:35:45;18.13;;;11.60;;
17345;SDS011;8790;53.590;10.002;2024-03-02T00:38:17;20.27;;;12.37;;
17345;SDS011;8790;53.590;10.002;2024-03-02T00:40:48;22.33;;;12.60;;
17345;SDS011;8790;53.590;10.002;2024-03-02T00:43:38;19.97;;;12.80;;
17345;SDS011;8790;53.590;10.002;2024-03-02T00:46:12;21.70;;;12.77;;
17345;SDS011;8790;53.590;10.002;2024-03-02T00:48:50;21.03;;;13.43;;
17345;SDS011;8790;53.590;10.002;2024-03-02T00:51:24;21.77;;;13.70;;
17345;SDS011;8790;53.590;10.002;2024-03-02T00:53:58;24.57;;;14.60;;
17345;SDS011;8790;53.590;10.002;2024-03-02T00:56:31;24.07;;;14.90;;
17345;SDS011;8790;53.590;10.002;2024-03-02T00:59:03;22.50;;;14.27;;
17345;SDS011;8790;53.590;10.002;2024-03-02T01:01:35;24.43;;;14.33;;
17345;SDS011;8790;53.590;10.002;2024-03-02T01:04:07;24.53;;;14.83;;
17345;SDS011;8790;53.590;10.002;2024-03-02T01:06:39;27.03;;;15.00;;
17345;SDS011;8790;53.590;10.002;2024-03-02T01:09:11;28.70;;;15.13;;
17345;SDS011;8790;53.590;10.002;2024-03-02T01:11:43;27.30;;;15.97;;
17345;SDS011;8790;53.590;10.002;2024-03-02T01:14:14;26.90;;;16.00;;
17345;SDS011;8790;53.590;10.002;2024-03-02T01:16:46;28.03;;;16.73;;
17345;SDS011;8790;53.590;10.002;2024-03-02T01:19:19;26.10;;;17.40;;
17345;SDS011;8790;53.590;10.002;2024-03-02T01:21:51;26.90;;;16.43;;
17345;SDS011;8790;53.590;10.002;2024-03-02T01:24:22;28.60;;;17.40;;
17345;SDS011;8790;53.590;10.002;2024-03-02T01:26:53;28.57;;;17.37;;
17345;SDS011;8790;53.590;10.002;2024-03-02T01:29:26;25.90;;;16.73;;
17345;SDS011;8790;53.590;10.002;2024-03-02T01:31:57;30.17;;;17.17;;
17345;SDS011;8790;53.590;10.002;2024-03-02T01:34:30;29.00;;;17.27;;
17345;SDS011;8790;53.590;10.002;2024-03-02T01:37:01;30.30;;;17.93;;
17345;SDS011;8790;53.590;10.002;2024-03-02T01:39:33;30.93;;;17.23;;
17345;SDS011;8790;53.590;10.002;2024-03-02T01:42:04;29.53;;;18.27;;
17345;SDS011;8790;53.590;10.002;2024-03-02T01:44:36;32.07;;;18.87;;
17345;SDS011;8790;53.590;10.002;2024-03-02T01:47:07;32.90;;;19.17;;
17345;SDS011;8790;53.590;10.002;2024-03-02T01:49:40;29.97;;;18.07;;
17345;SDS011;8790;53.590;10.002;2024-03-02T01:52:12;30.23;;;18.03;;
17345;SDS011;8790;53.590;10.002;2024-03-02T01:54:43;31.67;;;17.93;;
17345;SDS011;8790;53.590;10.002;2024-03-02T01:57:15;32.27;;;19.23;;
17345;SDS011;8790;53.590;10.002;2024-03-02T01:59:46;33.63;;;18.97;;
17345;SDS011;8790;53.590;10.002;2024-03-02T02:02:18;29.70;;;18.57;;
17345;SDS011;8790;53.590;10.002;2024-03-02T02:04:51;35.40;;;20.13;;
17345;SDS011;8790;53.590;10.002;2024-03-02T02:07:23;33.73;;;19.43;;
17345;SDS011;8790;53.590;10.002;2024-03-02T02:09:54;30.67;;;18.80;;
17345;SDS011;8790;53.590;10.002;2024-03-02T02:12:26;35.53;;;19.43;;
17345;SDS011;8790;53.590;10.002;2024-03-02T02:14:57;31.27;;;19.30;;
17345;SDS011;8790;53.590;10.002;2024-03-02T02:17:29;33.17;;;19.70;;
17345;SDS011;8790;53.590;10.002;2024-03-02T02:20:02;33.27;;;18.93;;
17345;SDS011;8790;53.590;10.002;2024-03-02T02:22:36;33.03;;;19.87;;
17345;SDS011;8790;53.590;10.002;2024-03-02T02:25:08;32.23;;;19.33;;
17345;SDS011;8790;53.590;10.002;2024-03-02T02:27:39;36.13;;;20.23;;
17345;SDS011;8790;53.590;10.002;2024-03-02T02:30:11;36.73;;;19.97;;
17345;SDS011;8790;53.590;10.002;2024-03-02T02:32:43;34.17;;;19.77;;
17345;SDS011;8790;53.590;10.002;2024-03-02T02:35:14;35.17;;;19.97;;
17345;SDS011;8790;53.590;10.002;2024-03-02T02:37:47;30.90;;;18.93;;
17345;SDS011;8790;53.590;10.002;2024-03-02T02:40:19;34.17;;;19.57;;
17345;SDS011;8790;53.590;10.002;2024-03-02T02:42:51;34.70;;;19.20;;
17345;SDS011;8790;53.590;10.002;2024-03-02T02:45:22;35.00;;;19.30;;
17345;SDS011;8790;53.590;10.002;2024-03-02T02:47:54;35.70;;;18.93;;
17345;SDS011;8790;53.590;10.002;2024-03-02T02:50:25;33.30;;;19.70;;
17345;SDS011;8790;53.590;10.002;2024-03-02T02:52:58;33.47;;;18.43;;
17345;SDS011;8790;53.590;10.002;2024-03-02T02:55:29;31.20;;;18.93;;
17345;SDS011;8790;53.590;10.002;2024-03-02T02:58:01;32.60;;;19.57;;
17345;SDS011;8790;53.590;10.002;2024-03-02T03:00:32;32.10;;;19.53;;
17345;SDS011;8790;53.590;10.002;2024-03-02T03:03:29;33.97;;;18.93;;
17345;SDS011;8790;53.590;10.002;2024-03-02T03:06:00;33.73;;;19.37;;
17345;SDS011;8790;53.590;10.002;2024-03-02T03:08:33;31.57;;;18.13;;
17345;SDS011;8790;53.590;10.002;2024-03-02T03:11:05;30.10;;;18.57;;
17345;SDS011;8790;53.590;10.002;2024-03-02T03:13:36;31.37;;;18.53;;
17345;SDS011;8790;53.590;10.002;2024-03-02T03:16:07;29.90;;;18.60;;
17345;SDS011;8790;53.590;10.002;2024-03-02T03:18:39;33.63;;;19.00;;
17345;SDS011;8790;53.590;10.002;2024-03-02T03:21:10;29.53;;;17.90;;
17345;SDS011;8790;53.590;10.002;2024-03-02T03:23:43;31.57;;;18.73;;
17345;SDS011;8790;53.590;10.002;2024-03-02T03:26:14;32.40;;;19.53;;
17345;SDS011;8790;53.590;10.002;2024-03-02T03:28:46;31.23;;;18.87;;
17345;SDS011;8790;53.590;10.002;2024-03-02T03:31:17;33.63;;;19.17;;
17345;SDS011;8790;53.590;10.002;2024-03-02T03:33:48;34.00;;;19.30;;
17345;SDS011;8790;53.590;10.002;2024-03-02T03:36:20;33.50;;;18.33;;
17345;SDS011;8790;53.590;10.002;2024-03-02T03:38:53;29.70;;;17.97;;
17345;SDS011;8790;53.590;10.002;2024-03-02T03:41:24;30.80;;;18.30;;
17345;SDS011;8790;53.590;10.002;2024-03-02T03:43:56;30.17;;;18.93;;
17345;SDS011;8790;53.590;10.002;2024-03-02T03:46:27;32.60;;;18.97;;
17345;SDS011;8790;53.590;10.002;2024-03-02T03:48:59;32.30;;;18.90;;
17345;SDS011;8790;53.590;10.002;2024-03-02T03:51:30;33.70;;;18.27;;
17345;SDS011;8790;53.590;10.002;2024-03-02T03:54:03;31.70;;;19.13;;
17345;SDS011;8790;53.590;10.002;2024-03-02T03:56:34;31.17;;;18.50;;
17345;SDS011;8790;53.590;10.002;2024-03-02T03:59:06;31.30;;;19.33;;
17345;SDS011;8790;53.590;10.002;2024-03-02T04:01:37;29.73;;;17.60;;
17345;SDS011;8790;53.590;10.002;2024-03-02T04:04:08;32.00;;;17.53;;
17345;SDS011;8790;53.590;10.002;2024-03-02T04:06:40;31.53;;;18.67;;
17345;SDS011;8790;53.590;10.002;2024-03-02T04:09:13;28.80;;;18.67;;
17345;SDS011;8790;53.590;10.002;2024-03-02T04:11:44;30.83;;;17.87;;
17345;SDS011;8790;53.590;10.002;2024-03-02T04:14:16;29.27;;;18.07;;
17345;SDS011;8790;53.590;10.002;2024-03-02T04:16:47;31.57;;;18.23;;
17345;SDS011;8790;53.590;10.002;2024-03-02T04:19:18;27.10;;;17.70;;
17345;SDS011;8790;53.590;10.002;2024-03-02T04:21:50;31.33;;;17.50;;
17345;SDS011;8790;53.590;10.002;2024-03-02T04:24:23;30.43;;;18.00;;
17345;SDS011;8790;53.590;10.002;2024-03-02T04:26:54;28.80;;;17.60;;
17345;SDS011;8790;53.590;10.002;2024-03-02T04:29:26;28.60;;;17.27;;
17345;SDS011;8790;53.590;10.002;2024-03-02T04:31:57;27.37;;;17.60;;
17345;SDS011;8790;53.590;10.002;2024-03-02T04:34:29;28.50;;;17.63;;
17345;SDS011;8790;53.590;10.002;2024-03-02T04:37:00;29.00;;;18.40;;
17345;SDS011;8790;53.590;10.002;2024-03-02T04:39:34;31.63;;;17.83;;
17345;SDS011;8790;53.590;10.002;2024-03-02T04:42:05;28.83;;;17.77;;
17345;SDS011;8790;53.590;10.002;2024-03-02T04:44:37;29.00;;;17.03;;
17345;SDS011;8790;53.590;10.002;2024-03-02T04:47:09;29.93;;;17.97;;
17345;SDS011;8790;53.590;10.002;2024-03-02T04:49:40;31.23;;;17.70;;
17345;SDS011;8790;53.590;10.002;2024-03-02T04:52:12;27.67;;;17.67;;
17345;SDS011;8790;53.590;10.002;2024-03-02T04:54:44;31.17;;;17.77;;
17345;SDS011;8790;53.590;10.002;2024-03-02T04:57:33;29.63;;;17.40;;
17345;SDS011;8790;53.590;10.002;2024-03-02T05:00:05;28.50;;;17.13;;
17345;SDS011;8790;53.590;10.002;2024-03-02T05:02:38;30.57;;;18.10;;
17345;SDS011;8790;53.590;10.002;2024-03-02T05:05:10;30.10;;;18.40;;
17345;SDS011;8790;53.590;10.002;2024-03-02T05:07:41;27.30;;;16.63;;
17345;SDS011;8790;53.590;10.002;2024-03-02T05:10:15;28.33;;;18.10;;
17345;SDS011;8790;53.590;10.002;2024-03-02T05:12:46;29.67;;;18.10;;
17345;SDS011;8790;53.590;10.002;2024-03-02T05:15:27;30.87;;;18.20;;
17345;SDS011;8790;53.590;10.002;2024-03-02T05:17:58;30.10;;;17.63;;
17345;SDS011;8790;53.590;10.002;2024-03-02T05:20:32;29.97;;;17.90;;
17345;SDS011;8790;53.590;10.002;2024-03-02T05:23:04;29.47;;;18.53;;
17345;SDS011;8790;53.590;10.002;2024-03-02T05:25:37;27.53;;;17.40;;
17345;SDS011;8790;53.590;10.002;2024-03-02T05:28:08;29.90;;;18.40;;
17345;SDS011;8790;53.590;10.002;2024-03-02T05:30:42;29.50;;;16.93;;
17345;SDS011;8790;53.590;10.002;2024-03-02T05:33:13;27.40;;;17.13;;
17345;SDS011;8790;53.590;10.002;2024-03-02T05:35:44;28.07;;;17.00;;
17345;SDS011;8790;53.590;10.002;2024-03-02T05:38:16;28.30;;;16.73;;
17345;SDS011;8790;53.590;10.002;2024-03-02T05:40:49;25.93;;;17.27;;
17345;SDS011;8790;53.590;10.002;2024-03-02T05:43:20;29.67;;;17.33;;
17345;SDS011;8790;53.590;10.002;2024-03-02T05:45:52;26.10;;;16.60;;
17345;SDS011;8790;53.590;10.002;2024-03-02T05:48:23;27.37;;;16.33;;
17345;SDS011;8790;53.590;10.002;2024-03-02T05:50:54;26.30;;;16.63;;
17345;SDS011;8790;53.590;10.002;2024-03-02T05:53:27;29.60;;;18.03;;
17345;SDS011;8790;53.590;10.002;2024-03-02T05:55:59;25.87;;;16.63;;
17345;SDS011;8790;53.590;10.002;2024-03-02T05:58:31;27.10;;;17.53;;
17345;SDS011;8790;53.590;10.002;2024-03-02T06:01:16;27.17;;;17.50;;
17345;SDS011;8790;53.590;10.002;2024-03-02T06:03:48;27.33;;;16.63;;
17345;SDS011;8790;53.590;10.002;2024-03-02T06:06:19;27.57;;;16.77;;
17345;SDS011;8790;53.590;10.002;2024-03-02T06:08:52;25.30;;;16.10;;
17345;SDS011;8790;53.590;10.002;2024-03-02T06:11:24;27.83;;;16.57;;
17345;SDS011;8790;53.590;10.002;2024-03-02T06:13:56;23.97;;;16.07;;
17345;SDS011;8790;53.590;10.002;2024-03-02T06:16:27;27.60;;;16.57;;
17345;SDS011;8790;53.590;10.002;2024-03-02T06:19:00;28.73;;;16.70;;
17345;SDS011;8790;53.590;10.002;2024-03-02T06:21:31;26.47;;;17.00;;
17345;SDS011;8790;53.590;10.002;2024-03-02T06:24:03;28.10;;;17.17;;
17345;SDS011;8790;53.590;10.002;2024-03-02T06:26:36;27.43;;;16.10;;
17345;SDS011;8790;53.590;10.002;2024-03-02T06:29:09;29.30;;;17.60;;
17345;SDS011;8790;53.590;10.002;2024-03-02T06:31:40;28.17;;;16.00;;
17345;SDS011;8790;53.590;10.002;2024-03-02T06:34:12;28.97;;;16.83;;
17345;SDS011;8790;53.590;10.002;2024-03-02T06:36:43;26.80;;;16.30;;
17345;SDS011;8790;53.590;10.002;2024-03-02T06:39:14;26.40;;;17.10;;
17345;SDS011;8790;53.590;10.002;2024-03-02T06:41:47;28.63;;;17.37;;
17345;SDS011;8790;53.590;10.002;2024-03-02T06:44:19;27.50;;;16.27;;
17345;SDS011;8790;53.590;10.002;2024-03-02T06:46:51;28.00;;;17.33;;
17345;SDS011;8790;53.590;10.002;2024-03-02T06:49:22;28.70;;;17.13;;
17345;SDS011;8790;53.590;10.002;2024-03-02T06:51:54;25.63;;;15.67;;
17345;SDS011;8790;53.590;10.002;2024-03-02T06:54:25;27.83;;;16.83;;
17345;SDS011;8790;53.590;10.002;2024-03-02T06:56:58;24.57;;;15.80;;
17345;SDS011;8790;53.590;10.002;2024-03-02T06:59:30;24.53;;;15.67;;
17345;SDS011;8790;53.590;10.002;2024-03-02T07:02:01;27.43;;;16.27;;
17345;SDS011;8790;53.590;10.002;2024-03-02T07:04:33;26.13;;;16.80;;
17345;SDS011;8790;53.590;10.002;2024-03-02T07:07:04;26.10;;;16.30;;
17345;SDS011;8790;53.590;10.002;2024-03-02T07:09:35;27.20;;;16.43;;
17345;SDS011;8790;53.590;10.002;2024-03-02T07:12:08;24.43;;;15.73;;
17345;SDS011;8790;53.590;10.002;2024-03-02T07:14:40;23.47;;;15.63;;
17345;SDS011;8790;53.590;10.002;2024-03-02T07:17:41;25.70;;;15.20;;
17345;SDS011;8790;53.590;10.002;2024-03-02T07:20:12;24.33;;;15.77;;
17345;SDS011;8790;53.590;10.002;2024-03-02T07:22:44;26.60;;;16.63;;
17345;SDS011;8790;53.590;10.002;2024-03-02T07:25:15;25.50;;;15.60;;
17345;SDS011;8790;53.590;10.002;2024-03-02T07:27:48;24.70;;;15.70;;
17345;SDS011;8790;53.590;10.002;2024-03-02T07:30:20;24.67;;;16.33;;
17345;SDS011;8790;53.590;10.002;2024-03-02T07:32:51;25.43;;;16.57;;
17345;SDS011;8790;53.590;10.002;2024-03-02T07:35:22;27.73;;;16.43;;
17345;SDS011;8790;53.590;10.002;2024-03-02T07:37:57;24.53;;;15.33;;
17345;SDS011;8790;53.590;10.002;2024-03-02T07:40:28;27.63;;;17.00;;
17345;SDS011;8790;53.590;10.002;2024-03-02T07:43:01;26.37;;;16.27;;
17345;SDS011;8790;53.590;10.002;2024-03-02T07:45:33;27.20;;;16.63;;
17345;SDS011;8790;53.590;10.002;2024-03-02T07:48:06;27.37;;;16.53;;
17345;SDS011;8790;53.590;10.002;2024-03-02T07:50:37;26.73;;;16.40;;
17345;SDS011;8790;53.590;10.002;2024-03-02T07:53:09;28.00;;;16.80;;
17345;SDS011;8790;53.590;10.002;2024-03-02T07:55:40;27.63;;;16.17;;
17345;SDS011;8790;53.590;10.002;2024-03-02T07:58:13;26.33;;;17.03;;
17345;SDS011;8790;53.590;10.002;2024-03-02T08:00:45;28.60;;;17.20;;
17345;SDS011;8790;53.590;10.002;2024-03-02T08:03:17;26.87;;;15.83;;
17345;SDS011;8790;53.590;10.002;2024-03-02T08:05:48;26.20;;;17.13;;
17345;SDS011;8790;53.590;10.002;2024-03-02T08:08:20;26.47;;;16.20;;
17345;SDS011;8790;53.590;10.002;2024-03-02T08:10:51;27.73;;;17.07;;
17345;SDS011;8790;53.590;10.002;2024-03-02T08:13:24;26.00;;;16.50;;
17345;SDS011;8790;53.590;10.002;2024-03-02T08:15:55;29.17;;;17.53;;
17345;SDS011;8790;53.590;10.002;2024-03-02T08:18:27;25.03;;;16.13;;
17345;SDS011;8790;53.590;10.002;2024-03-02T08:20:58;25.87;;;17.27;;
17345;SDS011;8790;53.590;10.002;2024-03-02T08:23:29;26.83;;;16.93;;
17345;SDS011;8790;53.590;10.002;2024-03-02T08:26:02;27.77;;;17.53;;
17345;SDS011;8790;53.590;10.002;2024-03-02T08:28:35;28.40;;;17.40;;
17345;SDS011;8790;53.590;10.002;2024-03-02T08:31:07;26.73;;;16.83;;
17345;SDS011;8790;53.590;10.002;2024-03-02T08:33:39;27.43;;;16.60;;
17345;SDS011;8790;53.590;10.002;2024-03-02T08:36:12;27.57;;;17.50;;
17345;SDS011;8790;53.590;10.002;2024-03-02T08:38:43;25.17;;;15.87;;
17345;SDS011;8790;53.590;10.002;2024-03-02T08:41:15;29.27;;;17.70;;
17345;SDS011;8790;53.590;10.002;2024-03-02T08:43:48;29.40;;;16.93;;
17345;SDS011;8790;53.590;10.002;2024-03-02T08:46:19;29.27;;;17.53;;
17345;SDS011;8790;53.590;10.002;2024-03-02T08:48:51;24.77;;;16.77;;
17345;SDS011;8790;53.590;10.002;2024-03-02T08:51:22;25.90;;;16.83;;
17345;SDS011;8790;53.590;10.002;2024-03-02T08:53:54;27.73;;;17.40;;
17345;SDS011;8790;53.590;10.002;2024-03-02T08:56:25;26.13;;;17.20;;
17345;SDS011;8790;53.590;10.002;2024-03-02T08:58:58;29.10;;;17.17;;
17345;SDS011;8790;53.590;10.002;2024-03-02T09:01:30;26.87;;;16.50;;
17345;SDS011;8790;53.590;10.002;2024-03-02T09:04:01;26.23;;;17.00;;
17345;SDS011;8790;53.590;10.002;2024-03-02T09:06:32;27.63;;;17.67;;
17345;SDS011;8790;53.590;10.002;2024-03-02T09:09:04;26.77;;;16.87;;
17345;SDS011;8790;53.590;10.002;2024-03-02T09:11:36;28.37;;;17.03;;
17345;SDS011;8790;53.590;10.002;2024-03-02T09:14:09;26.20;;;16.87;;
17345;SDS011;8790;53.590;10.002;2024-03-02T09:16:40;26.10;;;16.70;;
17345;SDS011;8790;53.590;10.002;2024-03-02T09:19:12;28.37;;;17.40;;
17345;SDS011;8790;53.590;10.002;2024-03-02T09:21:43;26.77;;;16.17;;
17345;SDS011;8790;53.590;10.002;2024-03-02T09:24:15;25.73;;;16.47;;
17345;SDS011;8790;53.590;10.002;2024-03-02T09:26:46;24.17;;;16.50;;
17345;SDS011;8790;53.590;10.002;2024-03-02T09:29:19;29.40;;;17.07;;
17345;SDS011;8790;53.590;10.002;2024-03-02T09:31:50;25.17;;;15.47;;
17345;SDS011;8790;53.590;10.002;2024-03-02T09:34:22;25.20;;;17.17;;
17345;SDS011;8790;53.590;10.002;2024-03-02T09:36:53;25.23;;;16.00;;
17345;SDS011;8790;53.590;10.002;2024-03-02T09:39:25;26.70;;;16.53;;
17345;SDS011;8790;53.590;10.002;2024-03-02T09:41:56;24.83;;;16.23;;
17345;SDS011;8790;53.590;10.002;2024-03-02T09:44:30;24.73;;;16.20;;
17345;SDS011;8790;53.590;10.002;2024-03-02T09:47:01;22.23;;;15.27;;
17345;SDS011;8790;53.590;10.002;2024-03-02T09:49:33;24.30;;;15.53;;
17345;SDS011;8790;53.590;10.002;2024-03-02T09:52:04;26.50;;;15.97;;
17345;SDS011;8790;53.590;10.002;2024-03-02T09:54:37;25.23;;;15.43;;
17345;SDS011;8790;53.590;10.002;2024-03-02T09:57:09;24.40;;;15.80;;
17345;SDS011;8790;53.590;10.002;2024-03-02T09:59:42;23.57;;;15.13;;
17345;SDS011;8790;53.590;10.002;2024-03-02T10:02:15;23.57;;;15.40;;
17345;SDS011;8790;53.590;10.002;2024-03-02T10:04:48;21.60;;;14.43;;
17345;SDS011;8790;53.590;10.002;2024-03-02T10:07:20;22.43;;;13.80;;
17345;SDS011;8790;53.590;10.002;2024-03-02T10:09:51;21.13;;;14.00;;
17345;SDS011;8790;53.590;10.002;2024-03-02T10:12:23;22.17;;;14.13;;
17345;SDS011;8790;53.590;10.002;2024-03-02T10:15:02;21.93;;;14.73;;
17345;SDS011;8790;53.590;10.002;2024-03-02T10:17:34;22.40;;;14.47;;
17345;SDS011;8790;53.590;10.002;2024-03-02T10:20:21;22.47;;;14.83;;
17345;SDS011;8790;53.590;10.002;2024-03-02T10:22:53;21.53;;;14.03;;
17345;SDS011;8790;53.590;10.002;2024-03-02T10:25:28;21.70;;;13.23;;
17345;SDS011;8790;53.590;10.002;2024-03-02T10:28:01;20.17;;;13.00;;
17345;SDS011;8790;53.590;10.002;2024-03-02T10:30:36;19.20;;;12.33;;
17345;SDS011;8790;53.590;10.002;2024-03-02T10:33:08;18.40;;;12.57;;
17345;SDS011;8790;53.590;10.002;2024-03-02T10:35:40;20.30;;;13.20;;
17345;SDS011;8790;53.590;10.002;2024-03-02T10:38:12;19.03;;;12.47;;
17345;SDS011;8790;53.590;10.002;2024-03-02T10:40:46;17.93;;;12.23;;
17345;SDS011;8790;53.590;10.002;2024-03-02T10:43:17;18.47;;;12.53;;
17345;SDS011;8790;53.590;10.002;2024-03-02T10:45:51;17.47;;;11.23;;
17345;SDS011;8790;53.590;10.002;2024-03-02T10:48:24;19.60;;;12.20;;
17345;SDS011;8790;53.590;10.002;2024-03-02T10:50:56;16.23;;;12.13;;
17345;SDS011;8790;53.590;10.002;2024-03-02T10:53:31;18.73;;;11.67;;
17345;SDS011;8790;53.590;10.002;2024-03-02T10:56:03;17.30;;;11.40;;
17345;SDS011;8790;53.590;10.002;2024-03-02T10:58:38;14.27;;;10.40;;
17345;SDS011;8790;53.590;10.002;2024-03-02T11:01:11;16.57;;;11.33;;
17345;SDS011;8790;53.590;10.002;2024-03-02T11:03:44;13.20;;;10.27;;
17345;SDS011;8790;53.590;10.002;2024-03-02T11:06:16;14.00;;;9.73;;
17345;SDS011;8790;53.590;10.002;2024-03-02T11:08:48;14.90;;;9.77;;
17345;SDS011;8790;53.590;10.002;2024-03-02T11:11:22;14.70;;;10.37;;
17345;SDS011;8790;53.590;10.002;2024-03-02T11:13:59;14.07;;;9.40;;
17345;SDS011;8790;53.590;10.002;2024-03-02T11:16:39;14.87;;;10.43;;
17345;SDS011;8790;53.590;10.002;2024-03-02T11:19:12;13.47;;;9.90;;
17345;SDS011;8790;53.590;10.002;2024-03-02T11:21:44;13.30;;;9.20;;
17345;SDS011;8790;53.590;10.002;2024-03-02T11:27:05;11.47;;;8.57;;
17345;SDS011;8790;53.590;10.002;2024-03-02T11:29:44;12.83;;;8.90;;
17345;SDS011;8790;53.590;10.002;2024-03-02T11:32:19;12.60;;;8.53;;
17345;SDS011;8790;53.590;10.002;2024-03-02T11:34:53;13.63;;;8.70;;
17345;SDS011;8790;53.590;10.002;2024-03-02T11:37:25;12.57;;;8.63;;
17345;SDS011;8790;53.590;10.002;2024-03-02T11:39:56;10.73;;;8.07;;
17345;SDS011;8790;53.590;10.002;2024-03-02T11:42:28;12.00;;;7.97;;
17345;SDS011;8790;53.590;10.002;2024-03-02T11:45:00;13.30;;;8.10;;
17345;SDS011;8790;53.590;10.002;2024-03-02T11:47:32;12.07;;;8.17;;
17345;SDS011;8790;53.590;10.002;2024-03-02T11:50:04;11.63;;;7.83;;
17345;SDS011;8790;53.590;10.002;2024-03-02T11:52:37;10.67;;;7.73;;
17345;SDS011;8790;53.590;10.002;2024-03-02T11:55:09;10.47;;;7.13;;
17345;SDS011;8790;53.590;10.002;2024-03-02T11:57:42;9.07;;;6.83;;
17345;SDS011;8790;53.590;10.002;2024-03-02T12:00:16;10.97;;;7.10;;
17345;SDS011;8790;53.590;10.002;2024-03-02T12:02:59;10.00;;;7.13;;
17345;SDS011;8790;53.590;10.002;2024-03-02T12:05:31;10.13;;;7.03;;
17345;SDS011;8790;53.590;10.002;2024-03-02T12:08:03;9.37;;;7.10;;
17345;SDS011;8790;53.590;10.002;2024-03-02T12:10:36;9.77;;;7.00;;
17345;SDS011;8790;53.590;10.002;2024-03-02T12:13:08;12.33;;;6.97;;
17345;SDS011;8790;53.590;10.002;2024-03-02T12:15:41;10.73;;;7.27;;
17345;SDS011;8790;53.590;10.002;2024-03-02T12:18:14;9.60;;;6.80;;
17345;SDS011;8790;53.590;10.002;2024-03-02T12:20:45;8.80;;;6.60;;
17345;SDS011;8790;53.590;10.002;2024-03-02T12:23:17;8.93;;;6.47;;
17345;SDS011;8790;53.590;10.002;2024-03-02T12:25:49;12.10;;;7.47;;
17345;SDS011;8790;53.590;10.002;2024-03-02T12:28:21;9.77;;;7.30;;
17345;SDS011;8790;53.590;10.002;2024-03-02T12:30:52;8.27;;;6.20;;
17345;SDS011;8790;53.590;10.002;2024-03-02T12:33:25;9.37;;;6.83;;
17345;SDS011;8790;53.590;10.002;2024-03-02T12:35:57;9.90;;;6.87;;
17345;SDS011;8790;53.590;10.002;2024-03-02T12:38:29;10.20;;;7.00;;
17345;SDS011;8790;53.590;10.002;2024-03-02T12:41:02;8.90;;;6.97;;
17345;SDS011;8790;53.590;10.002;2024-03-02T12:43:35;10.77;;;7.30;;
17345;SDS011;8790;53.590;10.002;2024-03-02T12:46:07;9.67;;;7.20;;
17345;SDS011;8790;53.590;10.002;2024-03-02T12:48:40;10.67;;;7.10;;
17345;SDS011;8790;53.590;10.002;2024-03-02T12:51:12;9.50;;;7.00;;
17345;SDS011;8790;53.590;10.002;2024-03-02T12:53:44;9.63;;;6.77;;
17345;SDS011;8790;53.590;10.002;2024-03-02T12:56:15;10.10;;;6.80;;
17345;SDS011;8790;53.590;10.002;2024-03-02T12:58:47;9.00;;;6.37;;
17345;SDS011;8790;53.590;10.002;2024-03-02T13:01:19;9.17;;;6.87;;
17345;SDS011;8790;53.590;10.002;2024-03-02T13:03:52;10.43;;;6.87;;
17345;SDS011;8790;53.590;10.002;2024-03-02T13:06:25;9.27;;;6.93;;
17345;SDS011;8790;53.590;10.002;2024-03-02T13:08:58;9.03;;;7.20;;
17345;SDS011;8790;53.590;10.002;2024-03-02T13:11:29;10.77;;;7.43;;
17345;SDS011;8790;53.590;10.002;2024-03-02T13:14:01;10.40;;;7.23;;
17345;SDS011;8790;53.590;10.002;2024-03-02T13:16:32;12.73;;;7.77;;
17345;SDS011;8790;53.590;10.002;2024-03-02T13:19:11;11.73;;;7.80;;
17345;SDS011;8790;53.590;10.002;2024-03-02T13:21:42;12.30;;;7.50;;
17345;SDS011;8790;53.590;10.002;2024-03-02T13:24:14;9.97;;;7.50;;
17345;SDS011;8790;53.590;10.002;2024-03-02T13:26:45;11.30;;;7.80;;
17345;SDS011;8790;53.590;10.002;2024-03-02T13:29:17;14.67;;;8.57;;
17345;SDS011;8790;53.590;10.002;2024-03-02T13:31:49;11.63;;;8.40;;
17345;SDS011;8790;53.590;10.002;2024-03-02T13:34:22;13.87;;;8.87;;
17345;SDS011;8790;53.590;10.002;2024-03-02T13:36:54;12.67;;;8.17;;
17345;SDS011;8790;53.590;10.002;2024-03-02T13:39:25;11.90;;;8.10;;
17345;SDS011;8790;53.590;10.002;2024-03-02T13:41:57;10.77;;;7.90;;
17345;SDS011;8790;53.590;10.002;2024-03-02T13:44:34;11.67;;;8.27;;
17345;SDS011;8790;53.590;10.002;2024-03-02T13:47:05;14.23;;;9.83;;
17345;SDS011;8790;53.590;10.002;2024-03-02T13:49:38;15.20;;;10.40;;
17345;SDS011;8790;53.590;10.002;2024-03-02T13:52:13;13.83;;;9.90;;
17345;SDS011;8790;53.590;10.002;2024-03-02T13:54:47;13.53;;;9.60;;
17345;SDS011;8790;53.590;10.002;2024-03-02T13:57:18;11.70;;;8.43;;
17345;SDS011;8790;53.590;10.002;2024-03-02T13:59:50;11.93;;;8.50;;
17345;SDS011;8790;53.590;10.002;2024-03-02T14:02:23;12.47;;;8.63;;
17345;SDS011;8790;53.590;10.002;2024-03-02T14:04:57;12.63;;;9.27;;
17345;SDS011;8790;53.590;10.002;2024-03-02T14:07:28;12.87;;;8.93;;
17345;SDS011;8790;53.590;10.002;2024-03-02T14:10:00;13.60;;;9.00;;
17345;SDS011;8790;53.590;10.002;2024-03-02T14:12:31;12.87;;;9.20;;
17345;SDS011;8790;53.590;10.002;2024-03-02T14:15:03;14.00;;;9.20;;
17345;SDS011;8790;53.590;10.002;2024-03-02T14:17:35;12.93;;;8.73;;
17345;SDS011;8790;53.590;10.002;2024-03-02T14:20:08;12.97;;;9.13;;
17345;SDS011;8790;53.590;10.002;2024-03-02T14:22:42;12.17;;;8.83;;
17345;SDS011;8790;53.590;10.002;2024-03-02T14:25:13;11.73;;;8.80;;
17345;SDS011;8790;53.590;10.002;2024-03-02T14:27:45;12.70;;;9.13;;
17345;SDS011;8790;53.590;10.002;2024-03-02T14:30:17;13.70;;;8.50;;
17345;SDS011;8790;53.590;10.002;2024-03-02T14:32:48;12.23;;;8.77;;
17345;SDS011;8790;53.590;10.002;2024-03-02T14:35:22;13.20;;;8.63;;
17345;SDS011;8790;53.590;10.002;2024-03-02T14:37:54;12.23;;;8.30;;
17345;SDS011;8790;53.590;10.002;2024-03-02T14:40:27;14.60;;;9.00;;
17345;SDS011;8790;53.590;10.002;2024-03-02T14:42:59;11.67;;;8.53;;
17345;SDS011;8790;53.590;10.002;2024-03-02T14:45:31;12.30;;;8.37;;
17345;SDS011;8790;53.590;10.002;2024-03-02T14:48:02;11.80;;;7.93;;
17345;SDS011;8790;53.590;10.002;2024-03-02T14:50:36;11.37;;;8.37;;
17345;SDS011;8790;53.590;10.002;2024-03-02T14:53:08;10.17;;;7.00;;
17345;SDS011;8790;53.590;10.002;2024-03-02T14:55:40;9.57;;;7.07;;
17345;SDS011;8790;53.590;10.002;2024-03-02T14:58:11;9.90;;;6.97;;
17345;SDS011;8790;53.590;10.002;2024-03-02T15:00:43;10.07;;;7.10;;